createdAt,value
2024-02-13T00:00:42.610Z,52.35
2024-02-13T00:01:42.647Z,53.34
2024-02-13T00:02:42.635Z,51.89
2024-02-13T00:03:42.654Z,52.84
2024-02-13T00:57:55.860Z,52.21
2024-02-13T00:58:42.650Z,58.37
2024-02-13T00:59:42.836Z,82.23
2024-02-13T01:00:42.672Z,115.44
2024-02-13T01:01:42.652Z,152.27
2024-02-13T01:02:42.685Z,191.11
2024-02-13T01:03:42.665Z,184.45
2024-02-13T01:04:42.637Z,168.57
2024-02-13T01:05:42.910Z,155.89
2024-02-13T01:06:43.431Z,146.29
2024-02-13T01:07:42.777Z,132.33
2024-02-13T01:08:42.855Z,125.95
2024-02-13T01:09:42.883Z,118.50
2024-02-13T01:10:42.960Z,111.91
2024-02-13T01:11:43.057Z,105.87
2024-02-13T01:12:43.058Z,104.38
2024-02-13T01:13:43.145Z,99.29
2024-02-13T01:14:43.216Z,94.10
2024-02-13T01:15:43.224Z,90.33
2024-02-13T01:16:43.276Z,88.57
2024-02-13T01:17:43.387Z,86.41
2024-02-13T01:18:43.472Z,82.19
2024-02-13T01:19:44.385Z,80.87
2024-02-13T01:20:44.369Z,79.65
2024-02-13T01:21:43.555Z,77.81
2024-02-13T01:22:43.612Z,75.21
2024-02-13T01:23:44.004Z,74.13
2024-02-13T01:24:43.805Z,71.57
2024-02-13T01:25:43.797Z,70.40
2024-02-13T01:26:43.920Z,68.25
2024-02-13T01:27:43.879Z,69.03
2024-02-13T01:28:43.959Z,67.95
2024-02-13T01:29:44.101Z,66.94
2024-02-13T01:30:44.049Z,62.71
2024-02-13T01:31:44.102Z,62.96
2024-02-13T01:32:44.240Z,63.01
2024-02-13T01:33:44.366Z,62.88
2024-02-13T01:34:44.325Z,59.40
2024-02-13T01:35:44.351Z,61.48
2024-02-13T01:36:44.390Z,60.80
2024-02-13T01:37:44.479Z,60.00
2024-02-13T01:38:44.494Z,57.87
2024-02-13T01:39:44.525Z,57.69
2024-02-13T01:40:44.575Z,58.01
2024-02-13T01:41:44.674Z,58.82
2024-02-13T01:42:44.700Z,57.38
2024-02-13T01:43:44.746Z,54.94
2024-02-13T01:44:44.848Z,55.66
2024-02-13T01:45:44.882Z,56.22
2024-02-13T01:46:44.899Z,54.01
2024-02-13T01:47:45.007Z,55.49
2024-02-13T01:48:45.091Z,54.64
2024-02-13T01:49:45.063Z,55.03
2024-02-13T01:50:45.157Z,54.23
2024-02-13T01:51:45.144Z,55.61
2024-02-13T01:52:45.209Z,53.09
2024-02-13T01:53:45.313Z,51.05
2024-02-13T01:54:45.294Z,52.53
2024-02-13T01:55:45.359Z,51.09
2024-02-13T01:56:45.493Z,52.53
2024-02-13T01:57:45.474Z,50.02
2024-02-13T01:58:46.350Z,51.90
2024-02-13T01:59:46.397Z,50.94
2024-02-13T02:00:45.682Z,50.65
2024-02-13T02:01:45.706Z,50.46
2024-02-13T02:02:45.772Z,50.89
2024-02-13T02:03:45.816Z,51.64
2024-02-13T02:04:45.848Z,53.08
2024-02-13T02:05:46.020Z,50.00
2024-02-13T02:06:45.999Z,52.46
2024-02-13T02:07:46.016Z,51.97
2024-02-13T02:08:49.058Z,50.69
2024-02-13T02:09:46.052Z,50.75
2024-02-13T02:10:46.055Z,51.00
2024-02-13T02:11:46.082Z,51.46
2024-02-13T02:12:46.081Z,52.03
2024-02-13T02:13:46.060Z,50.91
2024-02-13T02:14:46.090Z,52.75
2024-02-13T02:15:46.055Z,52.71
2024-02-13T02:16:46.069Z,51.01
2024-02-13T02:17:46.233Z,50.86
2024-02-13T02:18:46.171Z,51.73
2024-02-13T02:19:46.059Z,53.23
2024-02-13T02:20:46.163Z,51.21
2024-02-13T02:21:46.071Z,51.50
2024-02-13T02:22:46.082Z,51.21
2024-02-13T02:23:46.102Z,49.27
2024-02-13T02:24:46.076Z,53.99
2024-02-13T02:25:46.078Z,53.88
2024-02-13T02:26:46.104Z,50.96
2024-02-13T02:27:46.078Z,54.07
2024-02-13T02:28:46.076Z,54.27
2024-02-13T02:29:46.136Z,51.29
2024-02-13T02:30:46.159Z,50.97
2024-02-13T02:31:46.089Z,51.32
2024-02-13T02:32:46.693Z,52.96
2024-02-13T02:33:46.228Z,50.36
2024-02-13T02:34:46.221Z,50.18
2024-02-13T02:35:46.274Z,51.72
2024-02-13T02:36:46.296Z,51.16
2024-02-13T02:37:46.349Z,52.89
2024-02-13T02:38:46.443Z,50.00
2024-02-13T02:39:46.869Z,52.51
2024-02-13T02:40:47.661Z,51.32
2024-02-13T02:41:46.691Z,51.25
2024-02-13T02:42:46.624Z,54.01
2024-02-13T02:43:46.758Z,52.66
2024-02-13T02:44:46.806Z,52.97
2024-02-13T02:45:46.837Z,52.24
2024-02-13T02:46:46.834Z,54.49
2024-02-13T02:47:46.960Z,50.88
2024-02-13T02:48:48.021Z,51.64
2024-02-13T02:49:47.105Z,52.55
2024-02-13T02:50:47.119Z,50.34
2024-02-13T02:51:47.097Z,51.19
2024-02-13T02:52:47.167Z,51.34
2024-02-13T02:53:47.232Z,52.00
2024-02-13T02:54:47.661Z,53.95
2024-02-13T02:55:47.674Z,52.43
2024-02-13T02:56:47.737Z,52.93
2024-02-13T02:57:47.672Z,51.03
2024-02-13T02:58:47.762Z,53.09
2024-02-13T02:59:47.787Z,51.74
2024-02-13T03:00:47.698Z,51.11
2024-02-13T03:01:47.873Z,53.53
2024-02-13T03:02:47.925Z,55.03
2024-02-13T03:03:47.829Z,54.36
2024-02-13T03:04:47.845Z,55.09
2024-02-13T03:05:47.911Z,51.82
2024-02-13T03:06:47.942Z,51.20
2024-02-13T03:07:48.287Z,52.14
2024-02-13T03:08:48.055Z,51.10
2024-02-13T03:09:48.089Z,50.00
2024-02-13T03:10:48.133Z,52.94
2024-02-13T03:11:48.258Z,54.17
2024-02-13T03:12:48.239Z,52.92
2024-02-13T03:13:48.700Z,51.51
2024-02-13T03:14:48.768Z,53.78
2024-02-13T03:15:48.693Z,53.06
2024-02-13T03:16:48.728Z,53.42
2024-02-13T03:17:48.868Z,53.53
2024-02-13T03:18:48.749Z,51.28
2024-02-13T03:19:48.687Z,50.87
2024-02-13T03:20:48.871Z,50.00
2024-02-13T03:21:48.884Z,53.24
2024-02-13T03:22:48.869Z,53.50
2024-02-13T03:23:49.012Z,54.27
2024-02-13T03:24:49.878Z,53.49
2024-02-13T03:25:48.964Z,52.38
2024-02-13T03:26:49.083Z,54.43
2024-02-13T03:27:49.077Z,53.47
2024-02-13T03:28:49.116Z,51.12
2024-02-13T03:29:49.391Z,52.58
2024-02-13T03:30:49.243Z,54.26
2024-02-13T03:31:49.296Z,53.25
2024-02-13T03:32:49.567Z,52.53
2024-02-13T03:33:49.539Z,53.24
2024-02-13T03:34:49.492Z,51.59
2024-02-13T03:35:49.513Z,52.52
2024-02-13T03:36:49.580Z,53.21
2024-02-13T03:37:49.629Z,54.50
2024-02-13T03:38:49.718Z,51.84
2024-02-13T03:39:49.764Z,51.77
2024-02-13T03:40:49.777Z,51.96
2024-02-13T03:41:49.894Z,51.98
2024-02-13T03:42:49.893Z,52.19
2024-02-13T03:43:49.939Z,52.47
2024-02-13T03:44:50.119Z,53.33
2024-02-13T03:45:50.032Z,53.06
2024-02-13T03:46:50.103Z,54.78
2024-02-13T03:47:50.197Z,53.88
2024-02-13T03:48:50.312Z,52.67
2024-02-13T03:49:50.284Z,52.72
2024-02-13T03:50:50.386Z,53.44
2024-02-13T03:51:50.431Z,50.49
2024-02-13T03:52:50.499Z,51.67
2024-02-13T03:53:50.534Z,51.81
2024-02-13T03:54:50.551Z,51.77
2024-02-13T03:55:50.596Z,52.07
2024-02-13T03:56:50.732Z,53.18
2024-02-13T03:57:51.012Z,50.72
2024-02-13T03:58:50.766Z,52.57
2024-02-13T03:59:50.893Z,50.13
2024-02-13T04:00:50.961Z,50.95
2024-02-13T04:01:50.946Z,52.68
2024-02-13T04:02:51.122Z,52.31
2024-02-13T04:03:51.066Z,51.33
2024-02-13T04:04:51.100Z,52.23
2024-02-13T04:05:51.242Z,51.90
2024-02-13T04:06:51.221Z,53.82
2024-02-13T04:07:51.252Z,52.82
2024-02-13T04:08:51.929Z,51.74
2024-02-13T04:09:51.422Z,52.33
2024-02-13T04:10:51.431Z,53.37
2024-02-13T04:11:51.608Z,50.05
2024-02-13T04:12:51.554Z,54.50
2024-02-13T04:13:51.573Z,50.00
2024-02-13T04:14:51.718Z,52.88
2024-02-13T04:15:54.850Z,54.30
2024-02-13T04:16:51.682Z,54.42
2024-02-13T04:17:51.766Z,54.40
2024-02-13T04:18:51.781Z,54.48
2024-02-13T04:19:52.461Z,54.03
2024-02-13T04:20:51.706Z,54.76
2024-02-13T04:21:51.681Z,53.24
2024-02-13T04:22:51.686Z,53.16
2024-02-13T04:23:51.889Z,52.52
2024-02-13T04:24:51.719Z,53.14
2024-02-13T04:25:51.698Z,52.87
2024-02-13T04:26:51.723Z,54.68
2024-02-13T04:27:58.860Z,50.00
2024-02-13T04:28:59.858Z,50.00
2024-02-13T04:29:59.887Z,50.00
2024-02-13T04:30:59.863Z,50.00
2024-02-13T04:32:06.995Z,50.00
2024-02-13T04:33:08.117Z,50.00
2024-02-13T04:34:08.467Z,50.00
2024-02-13T04:35:08.001Z,50.00
2024-02-13T04:36:08.001Z,50.00
2024-02-13T04:37:07.991Z,50.00
2024-02-13T04:38:08.000Z,50.93
2024-02-13T04:39:08.026Z,52.05
2024-02-13T04:40:08.029Z,50.00
2024-02-13T04:41:08.011Z,51.58
2024-02-13T04:42:08.023Z,52.69
2024-02-13T04:43:08.004Z,52.91
2024-02-13T04:44:08.008Z,50.00
2024-02-13T04:45:08.029Z,50.78
2024-02-13T04:46:08.013Z,50.88
2024-02-13T04:47:08.008Z,53.25
2024-02-13T04:48:08.104Z,50.00
2024-02-13T04:49:08.056Z,53.56
2024-02-13T04:50:08.315Z,52.10
2024-02-13T04:51:08.091Z,53.16
2024-02-13T04:52:08.015Z,53.04
2024-02-13T04:53:08.016Z,51.28
2024-02-13T04:54:08.048Z,53.04
2024-02-13T04:55:08.068Z,53.81
2024-02-13T04:56:08.143Z,54.02
2024-02-13T04:57:08.168Z,54.36
2024-02-13T04:58:08.209Z,55.00
2024-02-13T04:59:08.267Z,53.06
2024-02-13T05:00:08.315Z,51.31
2024-02-13T05:01:08.389Z,52.12
2024-02-13T05:02:11.152Z,54.34
2024-02-13T05:03:08.398Z,52.22
2024-02-13T05:04:08.417Z,52.71
2024-02-13T05:05:08.445Z,52.16
2024-02-13T05:06:08.510Z,52.11
2024-02-13T05:07:08.422Z,54.41
2024-02-13T05:08:08.404Z,52.02
2024-02-13T05:09:08.403Z,56.69
2024-02-13T05:10:08.414Z,53.42
2024-02-13T05:11:08.406Z,52.52
2024-02-13T05:12:08.432Z,53.04
2024-02-13T05:13:08.405Z,53.86
2024-02-13T05:14:08.403Z,54.66
2024-02-13T05:15:08.421Z,54.28
2024-02-13T05:16:08.404Z,53.64
2024-02-13T05:17:08.412Z,53.79
2024-02-13T05:18:08.572Z,52.54
2024-02-13T05:19:11.207Z,52.99
2024-02-13T05:20:08.409Z,53.02
2024-02-13T05:21:08.413Z,53.33
2024-02-13T05:22:08.423Z,52.72
2024-02-13T05:23:08.410Z,54.13
2024-02-13T05:24:08.413Z,52.47
2024-02-13T05:25:08.425Z,52.49
2024-02-13T05:26:08.422Z,53.75
2024-02-13T05:27:08.426Z,52.18
2024-02-13T05:28:08.452Z,51.12
2024-02-13T05:29:08.421Z,52.25
2024-02-13T05:30:08.414Z,51.55
2024-02-13T05:31:08.441Z,53.72
2024-02-13T05:32:08.434Z,51.56
2024-02-13T05:33:08.566Z,52.14
2024-02-13T05:34:08.657Z,53.45
2024-02-13T05:35:08.421Z,53.65
2024-02-13T05:36:08.427Z,52.69
2024-02-13T05:37:08.430Z,51.98
2024-02-13T05:38:08.426Z,52.80
2024-02-13T05:39:08.431Z,50.70
2024-02-13T05:40:08.434Z,54.61
2024-02-13T05:41:08.495Z,52.23
2024-02-13T05:42:08.437Z,52.55
2024-02-13T05:43:08.431Z,51.85
2024-02-13T05:44:08.464Z,55.62
2024-02-13T05:45:08.432Z,51.93
2024-02-13T05:46:08.460Z,51.35
2024-02-13T05:47:08.434Z,51.68
2024-02-13T05:48:08.743Z,53.27
2024-02-13T05:49:08.659Z,51.95
2024-02-13T05:50:08.441Z,52.02
2024-02-13T05:51:08.444Z,52.95
2024-02-13T05:52:08.452Z,53.60
2024-02-13T05:53:08.463Z,51.71
2024-02-13T05:54:08.586Z,52.17
2024-02-13T05:55:08.543Z,52.85
2024-02-13T05:56:08.609Z,53.53
2024-02-13T05:57:09.177Z,54.14
2024-02-13T05:58:08.684Z,53.22
2024-02-13T05:59:08.732Z,52.88
2024-02-13T06:00:11.864Z,52.53
2024-02-13T06:01:08.966Z,52.55
2024-02-13T06:02:11.795Z,52.53
2024-02-13T06:03:08.794Z,52.64
2024-02-13T06:04:09.224Z,52.84
2024-02-13T06:05:08.818Z,53.32
2024-02-13T06:06:08.890Z,53.10
2024-02-13T06:07:08.886Z,53.42
2024-02-13T06:08:08.771Z,54.87
2024-02-13T06:09:08.780Z,55.80
2024-02-13T06:10:08.779Z,53.62
2024-02-13T06:11:08.852Z,55.10
2024-02-13T06:12:08.829Z,54.05
2024-02-13T06:13:08.778Z,54.32
2024-02-13T06:14:08.786Z,55.11
2024-02-13T06:15:08.791Z,53.25
2024-02-13T06:16:08.821Z,53.93
2024-02-13T06:17:08.788Z,55.13
2024-02-13T06:18:08.919Z,52.60
2024-02-13T06:19:08.927Z,50.96
2024-02-13T06:20:08.804Z,53.71
2024-02-13T06:21:08.792Z,52.85
2024-02-13T06:22:08.794Z,52.52
2024-02-13T06:23:08.796Z,53.45
2024-02-13T06:24:08.902Z,53.77
2024-02-13T06:25:08.821Z,55.20
2024-02-13T06:26:08.856Z,54.09
2024-02-13T06:27:08.955Z,50.91
2024-02-13T06:28:08.953Z,51.86
2024-02-13T06:29:08.997Z,54.16
2024-02-13T06:30:09.034Z,52.71
2024-02-13T06:31:09.082Z,51.87
2024-02-13T06:32:09.169Z,52.46
2024-02-13T06:33:09.627Z,53.20
2024-02-13T06:34:09.297Z,50.38
2024-02-13T06:35:08.268Z,51.28
2024-02-13T06:36:09.403Z,50.93
2024-02-13T06:37:09.361Z,52.21
2024-02-13T06:38:09.398Z,52.94
2024-02-13T06:39:09.456Z,52.22
2024-02-13T06:40:09.524Z,53.79
2024-02-13T06:41:09.561Z,52.84
2024-02-13T06:42:09.636Z,51.92
2024-02-13T06:43:09.626Z,52.55
2024-02-13T06:44:09.676Z,54.64
2024-02-13T06:45:09.726Z,52.51
2024-02-13T06:46:09.768Z,54.72
2024-02-13T06:47:09.810Z,52.12
2024-02-13T06:48:10.110Z,50.82
2024-02-13T06:49:10.036Z,52.60
2024-02-13T06:50:09.965Z,51.47
2024-02-13T06:51:10.835Z,52.68
2024-02-13T06:52:10.662Z,53.14
2024-02-13T06:53:10.098Z,50.51
2024-02-13T06:54:10.149Z,50.00
2024-02-13T06:55:11.165Z,52.11
2024-02-13T06:56:10.242Z,53.84
2024-02-13T06:57:10.299Z,52.70
2024-02-13T06:58:10.351Z,52.95
2024-02-13T06:59:10.410Z,52.41
2024-02-13T07:00:10.650Z,54.48
2024-02-13T07:01:10.667Z,51.70
2024-02-13T07:02:10.562Z,53.47
2024-02-13T07:03:10.588Z,51.72
2024-02-13T07:04:10.669Z,53.65
2024-02-13T07:05:10.788Z,54.18
2024-02-13T07:06:10.942Z,53.75
2024-02-13T07:07:25.357Z,53.68
2024-02-13T07:08:11.911Z,53.73
2024-02-13T07:09:10.959Z,53.95
2024-02-13T07:10:10.920Z,53.81
2024-02-13T07:11:10.846Z,53.10
2024-02-13T07:12:10.777Z,54.03
2024-02-13T07:13:10.792Z,54.42
2024-02-13T07:14:10.781Z,52.43
2024-02-13T07:15:10.894Z,53.49
2024-02-13T07:16:10.813Z,54.01
2024-02-13T07:17:10.918Z,51.92
2024-02-13T07:18:11.085Z,51.53
2024-02-13T07:19:11.292Z,55.04
2024-02-13T07:20:11.206Z,52.18
2024-02-13T07:21:11.054Z,53.98
2024-02-13T07:22:11.116Z,55.67
2024-02-13T07:23:11.419Z,54.48
2024-02-13T07:24:11.332Z,52.14
2024-02-13T07:25:11.306Z,51.60
2024-02-13T07:26:11.314Z,56.20
2024-02-13T07:27:11.342Z,52.55
2024-02-13T07:28:11.384Z,53.72
2024-02-13T07:29:11.847Z,51.94
2024-02-13T07:30:11.957Z,51.62
2024-02-13T07:31:11.831Z,52.96
2024-02-13T07:32:13.429Z,51.53
2024-02-13T07:33:11.879Z,53.03
2024-02-13T07:34:11.973Z,55.64
2024-02-13T07:35:11.855Z,52.92
2024-02-13T07:36:11.920Z,52.80
2024-02-13T07:37:11.820Z,53.80
2024-02-13T07:38:11.922Z,54.81
2024-02-13T07:39:11.821Z,54.36
2024-02-13T07:40:11.830Z,54.60
2024-02-13T07:41:11.846Z,52.37
2024-02-13T07:42:11.825Z,53.29
2024-02-13T07:43:11.828Z,54.11
2024-02-13T07:44:11.931Z,52.61
2024-02-13T07:45:11.832Z,52.67
2024-02-13T07:46:11.833Z,56.08
2024-02-13T07:47:11.864Z,54.41
2024-02-13T07:48:11.916Z,53.60
2024-02-13T07:49:11.971Z,53.98
2024-02-13T07:50:12.070Z,52.75
2024-02-13T07:51:11.833Z,51.85
2024-02-13T07:52:11.873Z,52.16
2024-02-13T07:53:12.118Z,52.16
2024-02-13T07:54:11.835Z,54.36
2024-02-13T07:55:13.092Z,52.53
2024-02-13T07:56:11.923Z,54.74
2024-02-13T07:57:11.838Z,54.63
2024-02-13T07:58:11.836Z,53.32
2024-02-13T07:59:11.922Z,53.48
2024-02-13T08:00:11.952Z,55.46
2024-02-13T08:01:12.987Z,54.35
2024-02-13T08:02:12.060Z,53.24
2024-02-13T08:03:12.115Z,56.18
2024-02-13T08:04:12.185Z,55.45
2024-02-13T08:05:12.260Z,55.06
2024-02-13T08:06:12.346Z,53.91
2024-02-13T08:07:12.296Z,53.52
2024-02-13T08:08:12.484Z,54.36
2024-02-13T08:09:12.381Z,53.43
2024-02-13T08:10:12.795Z,56.62
2024-02-13T08:11:12.880Z,54.65
2024-02-13T08:12:12.849Z,53.61
2024-02-13T08:13:12.904Z,55.67
2024-02-13T08:14:12.870Z,54.07
2024-02-13T08:15:12.846Z,55.28
2024-02-13T08:16:12.854Z,55.22
2024-02-13T08:17:12.938Z,56.56
2024-02-13T08:18:12.944Z,53.64
2024-02-13T08:19:12.917Z,54.44
2024-02-13T08:20:12.970Z,55.94
2024-02-13T08:21:13.001Z,55.12
2024-02-13T08:22:13.018Z,55.93
2024-02-13T08:23:13.129Z,56.08
2024-02-13T08:24:13.134Z,55.59
2024-02-13T08:25:13.180Z,54.61
2024-02-13T08:26:13.209Z,54.87
2024-02-13T08:27:13.244Z,53.76
2024-02-13T08:28:13.314Z,55.75
2024-02-13T08:29:13.377Z,54.96
2024-02-13T08:30:13.480Z,55.17
2024-02-13T08:31:13.455Z,54.69
2024-02-13T08:32:13.588Z,54.29
2024-02-13T08:33:13.689Z,55.65
2024-02-13T08:34:13.794Z,55.09
2024-02-13T08:35:13.873Z,54.72
2024-02-13T08:36:13.787Z,54.86
2024-02-13T08:37:13.773Z,55.25
2024-02-13T08:38:13.828Z,55.50
2024-02-13T08:39:13.839Z,56.36
2024-02-13T08:40:13.918Z,54.19
2024-02-13T08:41:14.825Z,57.28
2024-02-13T08:42:13.964Z,54.42
2024-02-13T08:43:14.023Z,54.88
2024-02-13T08:44:14.179Z,54.25
2024-02-13T08:45:14.119Z,57.40
2024-02-13T08:46:14.211Z,56.26
2024-02-13T08:47:14.229Z,54.68
2024-02-13T08:48:14.473Z,57.00
2024-02-13T08:49:15.146Z,54.83
2024-02-13T08:50:14.758Z,55.48
2024-02-13T08:51:15.377Z,54.94
2024-02-13T08:52:14.459Z,56.45
2024-02-13T08:53:14.551Z,56.48
2024-02-13T08:54:14.557Z,56.72
2024-02-13T08:55:14.656Z,54.78
2024-02-13T08:56:14.677Z,55.26
2024-02-13T08:57:14.703Z,55.81
2024-02-13T08:58:14.750Z,56.06
2024-02-13T08:59:14.824Z,55.86
2024-02-13T09:00:14.901Z,55.38
2024-02-13T09:01:14.925Z,55.87
2024-02-13T09:02:14.998Z,54.48
2024-02-13T09:03:14.987Z,56.20
2024-02-13T09:04:15.087Z,55.53
2024-02-13T09:05:15.229Z,55.32
2024-02-13T09:06:15.181Z,55.39
2024-02-13T09:07:15.194Z,56.74
2024-02-13T09:08:15.260Z,55.57
2024-02-13T09:09:15.286Z,54.44
2024-02-13T09:10:15.359Z,54.61
2024-02-13T09:11:15.518Z,56.40
2024-02-13T09:12:15.442Z,55.00
2024-02-13T09:13:15.535Z,55.21
2024-02-13T09:14:15.702Z,57.12
2024-02-13T09:15:15.614Z,57.18
2024-02-13T09:16:15.661Z,56.04
2024-02-13T09:17:15.705Z,54.91
2024-02-13T09:18:16.327Z,55.66
2024-02-13T09:19:15.869Z,55.73
2024-02-13T09:20:16.490Z,56.50
2024-02-13T09:21:15.862Z,55.25
2024-02-13T09:22:15.904Z,55.90
2024-02-13T09:23:15.982Z,56.32
2024-02-13T09:24:16.095Z,56.57
2024-02-13T09:25:16.075Z,57.10
2024-02-13T09:26:16.730Z,57.87
2024-02-13T09:27:16.164Z,54.73
2024-02-13T09:28:16.241Z,54.84
2024-02-13T09:29:16.290Z,58.26
2024-02-13T09:30:16.318Z,55.91
2024-02-13T09:31:16.359Z,57.15
2024-02-13T09:32:16.431Z,57.54
2024-02-13T09:33:16.666Z,57.15
2024-02-13T09:34:16.555Z,56.42
2024-02-13T09:35:16.636Z,55.30
2024-02-13T09:36:16.602Z,60.25
2024-02-13T09:37:16.712Z,57.90
2024-02-13T09:38:16.711Z,55.38
2024-02-13T09:39:17.895Z,57.64
2024-02-13T09:40:17.903Z,54.82
2024-02-13T09:41:16.933Z,57.21
2024-02-13T09:42:16.884Z,55.04
2024-02-13T09:43:17.006Z,57.37
2024-02-13T09:44:17.084Z,57.83
2024-02-13T09:45:17.037Z,57.07
2024-02-13T09:46:17.157Z,56.78
2024-02-13T09:47:17.218Z,55.43
2024-02-13T09:48:17.358Z,55.37
2024-02-13T09:49:17.398Z,57.07
2024-02-13T09:50:17.422Z,58.25
2024-02-13T09:51:17.346Z,58.22
2024-02-13T09:52:18.230Z,56.01
2024-02-13T09:53:17.512Z,55.88
2024-02-13T09:54:18.264Z,55.95
2024-02-13T09:55:17.907Z,57.94
2024-02-13T09:56:18.018Z,55.19
2024-02-13T09:57:17.912Z,58.70
2024-02-13T09:58:17.904Z,56.17
2024-02-13T09:59:17.928Z,58.85
2024-02-13T10:00:18.106Z,56.05
2024-02-13T10:01:18.033Z,55.32
2024-02-13T10:02:17.933Z,56.38
2024-02-13T10:03:18.061Z,56.92
2024-02-13T10:04:17.977Z,56.70
2024-02-13T10:05:18.572Z,55.98
2024-02-13T10:06:18.117Z,59.27
2024-02-13T10:07:18.110Z,57.42
2024-02-13T10:08:18.169Z,60.12
2024-02-13T10:09:18.196Z,57.74
2024-02-13T10:10:18.245Z,56.55
2024-02-13T10:11:18.330Z,57.85
2024-02-13T10:12:18.343Z,57.74
2024-02-13T10:13:18.398Z,56.24
2024-02-13T10:14:18.464Z,55.37
2024-02-13T10:15:18.501Z,57.26
2024-02-13T10:16:18.944Z,57.28
2024-02-13T10:17:19.098Z,58.09
2024-02-13T10:18:18.976Z,57.24
2024-02-13T10:19:18.997Z,57.62
2024-02-13T10:20:19.127Z,57.23
2024-02-13T10:21:18.915Z,59.20
2024-02-13T10:22:18.922Z,58.07
2024-02-13T10:23:19.983Z,57.48
2024-02-13T10:24:19.141Z,58.22
2024-02-13T10:25:21.818Z,57.53
2024-02-13T10:26:19.827Z,57.61
2024-02-13T10:27:18.949Z,57.69
2024-02-13T10:28:18.927Z,57.90
2024-02-13T10:29:18.997Z,58.79
2024-02-13T10:30:18.929Z,58.88
2024-02-13T10:31:18.928Z,61.64
2024-02-13T10:32:19.845Z,57.92
2024-02-13T10:33:19.036Z,59.73
2024-02-13T10:34:18.943Z,58.72
2024-02-13T10:35:19.068Z,58.76
2024-02-13T10:36:19.020Z,57.73
2024-02-13T10:37:18.961Z,58.28
2024-02-13T10:38:19.011Z,58.24
2024-02-13T10:39:19.072Z,58.64
2024-02-13T10:40:19.107Z,58.26
2024-02-13T10:41:19.165Z,57.58
2024-02-13T10:42:19.176Z,55.58
2024-02-13T10:43:19.230Z,57.54
2024-02-13T10:44:19.302Z,58.28
2024-02-13T10:45:19.311Z,57.93
2024-02-13T10:46:19.347Z,59.89
2024-02-13T10:47:19.456Z,58.68
2024-02-13T10:48:19.488Z,57.57
2024-02-13T10:49:19.486Z,57.86
2024-02-13T10:50:19.515Z,57.49
2024-02-13T10:51:19.545Z,59.52
2024-02-13T10:52:19.606Z,59.87
2024-02-13T10:53:19.657Z,57.01
2024-02-13T10:54:19.814Z,56.76
2024-02-13T10:55:19.753Z,56.44
2024-02-13T10:56:19.834Z,59.02
2024-02-13T10:57:19.919Z,58.67
2024-02-13T10:58:27.647Z,58.79
2024-02-13T10:59:19.936Z,58.94
2024-02-13T11:00:19.893Z,59.10
2024-02-13T11:01:23.612Z,59.78
2024-02-13T11:02:20.059Z,58.96
2024-02-13T11:03:19.988Z,59.54
2024-02-13T11:04:19.926Z,59.21
2024-02-13T11:05:20.057Z,60.42
2024-02-13T11:06:20.277Z,61.24
2024-02-13T11:07:20.223Z,61.27
2024-02-13T11:08:20.040Z,59.07
2024-02-13T11:09:20.075Z,61.40
2024-02-13T11:10:20.761Z,59.58
2024-02-13T11:11:20.152Z,61.54
2024-02-13T11:12:20.269Z,60.58
2024-02-13T11:13:21.756Z,60.21
2024-02-13T11:14:20.466Z,62.13
2024-02-13T11:15:20.497Z,60.03
2024-02-13T11:16:20.530Z,60.75
2024-02-13T11:17:20.636Z,60.26
2024-02-13T11:18:20.740Z,59.47
2024-02-13T11:19:20.662Z,60.20
2024-02-13T11:20:20.752Z,59.12
2024-02-13T11:21:20.724Z,58.81
2024-02-13T11:22:20.766Z,60.51
2024-02-13T11:23:20.824Z,59.81
2024-02-13T11:24:20.833Z,61.06
2024-02-13T11:25:20.880Z,59.80
2024-02-13T11:26:20.932Z,58.62
2024-02-13T11:27:28.014Z,57.99
2024-02-13T11:28:21.087Z,58.14
2024-02-13T11:29:20.979Z,58.50
2024-02-13T11:30:20.947Z,59.54
2024-02-13T11:31:20.942Z,60.58
2024-02-13T11:32:21.096Z,60.65
2024-02-13T11:33:21.309Z,61.54
2024-02-13T11:34:21.206Z,62.05
2024-02-13T11:35:21.026Z,61.71
2024-02-13T11:36:21.318Z,62.10
2024-02-13T11:37:20.946Z,60.16
2024-02-13T11:38:21.031Z,59.04
2024-02-13T11:39:20.963Z,60.60
2024-02-13T11:40:20.966Z,60.23
2024-02-13T11:41:20.965Z,60.31
2024-02-13T11:42:20.945Z,61.05
2024-02-13T11:43:20.957Z,60.77
2024-02-13T11:44:21.014Z,59.49
2024-02-13T11:45:20.950Z,60.15
2024-02-13T11:46:20.949Z,60.07
2024-02-13T11:47:21.345Z,59.98
2024-02-13T11:48:21.058Z,57.46
2024-02-13T11:49:21.096Z,59.03
2024-02-13T11:50:21.139Z,59.65
2024-02-13T11:51:20.996Z,61.38
2024-02-13T11:52:20.983Z,59.96
2024-02-13T11:53:21.086Z,59.54
2024-02-13T11:54:20.959Z,60.69
2024-02-13T11:55:21.140Z,58.26
2024-02-13T11:56:20.977Z,59.80
2024-02-13T11:57:20.981Z,59.83
2024-02-13T11:58:21.007Z,62.12
2024-02-13T11:59:21.006Z,59.14
2024-02-13T12:00:21.525Z,60.08
2024-02-13T12:01:21.071Z,61.05
2024-02-13T12:02:21.099Z,60.42
2024-02-13T12:03:20.136Z,59.00
2024-02-13T12:04:21.257Z,61.30
2024-02-13T12:05:21.437Z,59.96
2024-02-13T12:06:21.217Z,61.17
2024-02-13T12:07:21.305Z,59.95
2024-02-13T12:08:21.341Z,61.35
2024-02-13T12:09:21.333Z,57.95
2024-02-13T12:10:21.372Z,62.24
2024-02-13T12:11:21.440Z,61.72
2024-02-13T12:12:21.651Z,61.93
2024-02-13T12:13:21.540Z,60.97
2024-02-13T12:14:21.535Z,61.61
2024-02-13T12:15:21.543Z,59.39
2024-02-13T12:16:21.565Z,60.78
2024-02-13T12:17:21.662Z,62.16
2024-02-13T12:18:21.774Z,61.59
2024-02-13T12:19:21.747Z,63.49
2024-02-13T12:20:21.746Z,62.52
2024-02-13T12:21:21.745Z,61.33
2024-02-13T12:22:21.781Z,64.17
2024-02-13T12:23:21.826Z,61.98
2024-02-13T12:24:21.882Z,58.31
2024-02-13T12:25:21.863Z,62.71
2024-02-13T12:26:22.418Z,62.68
2024-02-13T12:27:22.800Z,62.27
2024-02-13T12:28:22.327Z,63.41
2024-02-13T12:29:22.406Z,62.97
2024-02-13T12:30:22.366Z,62.71
2024-02-13T12:31:22.364Z,64.41
2024-02-13T12:32:22.404Z,63.46
2024-02-13T12:33:22.696Z,60.20
2024-02-13T12:34:22.516Z,61.56
2024-02-13T12:35:22.417Z,60.65
2024-02-13T12:36:22.407Z,66.43
2024-02-13T12:37:22.359Z,63.47
2024-02-13T12:38:22.388Z,63.52
2024-02-13T12:39:22.386Z,61.50
2024-02-13T12:40:22.393Z,62.22
2024-02-13T12:41:22.469Z,65.24
2024-02-13T12:42:22.421Z,64.36
2024-02-13T12:43:22.457Z,64.66
2024-02-13T12:44:22.708Z,64.14
2024-02-13T12:45:22.551Z,65.54
2024-02-13T12:46:22.564Z,64.93
2024-02-13T12:47:22.635Z,65.29
2024-02-13T12:48:22.715Z,63.37
2024-02-13T12:49:23.253Z,64.17
2024-02-13T12:50:22.883Z,63.24
2024-02-13T12:51:22.847Z,64.69
2024-02-13T12:52:22.755Z,64.14
2024-02-13T12:53:22.946Z,64.50
2024-02-13T12:54:24.579Z,62.39
2024-02-13T12:55:22.822Z,64.61
2024-02-13T12:56:22.873Z,65.05
2024-02-13T12:57:22.826Z,65.26
2024-02-13T12:58:22.833Z,63.66
2024-02-13T12:59:23.025Z,65.29
2024-02-13T13:00:22.831Z,65.35
2024-02-13T13:01:22.853Z,65.09
2024-02-13T13:02:23.076Z,64.57
2024-02-13T13:03:22.847Z,63.47
2024-02-13T13:04:23.081Z,65.98
2024-02-13T13:05:22.858Z,65.22
2024-02-13T13:06:22.895Z,64.72
2024-02-13T13:07:22.847Z,65.26
2024-02-13T13:08:22.866Z,65.24
2024-02-13T13:09:28.020Z,64.63
2024-02-13T13:10:22.855Z,64.74
2024-02-13T13:11:22.910Z,65.32
2024-02-13T13:12:22.882Z,64.80
2024-02-13T13:13:22.856Z,65.97
2024-02-13T13:14:22.951Z,64.11
2024-02-13T13:15:25.589Z,66.64
2024-02-13T13:16:22.871Z,66.68
2024-02-13T13:17:23.354Z,66.78
2024-02-13T13:18:23.048Z,66.69
2024-02-13T13:19:23.632Z,66.97
2024-02-13T13:20:23.004Z,68.17
2024-02-13T13:21:22.908Z,66.17
2024-02-13T13:22:23.048Z,66.98
2024-02-13T13:23:22.931Z,63.44
2024-02-13T13:24:22.876Z,67.95
2024-02-13T13:25:22.871Z,66.09
2024-02-13T13:26:22.934Z,66.46
2024-02-13T13:27:22.879Z,66.09
2024-02-13T13:28:23.545Z,65.92
2024-02-13T13:29:23.257Z,66.93
2024-02-13T13:30:23.018Z,65.88
2024-02-13T13:31:22.870Z,65.07
2024-02-13T13:32:22.987Z,64.72
2024-02-13T13:33:22.998Z,66.17
2024-02-13T13:34:22.987Z,67.80
2024-02-13T13:35:22.995Z,65.89
2024-02-13T13:36:23.266Z,62.31
2024-02-13T13:37:23.288Z,65.02
2024-02-13T13:38:23.349Z,65.99
2024-02-13T13:39:23.307Z,66.81
2024-02-13T13:40:23.301Z,65.23
2024-02-13T13:41:23.780Z,66.31
2024-02-13T13:42:23.322Z,63.59
2024-02-13T13:43:23.304Z,66.76
2024-02-13T13:44:23.353Z,65.64
2024-02-13T13:45:23.309Z,66.38
2024-02-13T13:46:23.298Z,65.13